createdAt,value
2022-08-08T00:02:03.715Z,37.91
2022-08-08T00:04:40.481Z,37.85
2022-08-08T00:07:42.435Z,37.99
2022-08-08T00:10:28.425Z,37.94
2022-08-08T00:14:14.699Z,37.95
2022-08-08T00:16:57.058Z,37.95
2022-08-08T00:19:35.980Z,37.94
2022-08-08T00:22:10.587Z,37.77
2022-08-08T00:24:42.807Z,37.90
2022-08-08T00:27:13.835Z,38.16
2022-08-08T00:29:48.542Z,38.37
2022-08-08T00:35:25.501Z,38.46
2022-08-08T00:38:01.781Z,38.63
2022-08-08T00:41:12.009Z,38.72
2022-08-08T00:54:42.867Z,39.54
2022-08-08T01:00:10.718Z,39.74
2022-08-08T01:04:00.237Z,39.62
2022-08-08T01:06:27.247Z,39.48
2022-08-08T01:09:34.793Z,39.34
2022-08-08T01:12:11.807Z,39.56
2022-08-08T01:14:57.469Z,39.48
2022-08-08T01:26:20.355Z,39.01
2022-08-08T01:29:09.430Z,38.70
2022-08-08T01:32:13.483Z,39.13
2022-08-08T01:35:29.859Z,39.54
2022-08-08T01:38:18.367Z,39.46
2022-08-08T01:41:05.255Z,39.64
2022-08-08T01:43:50.594Z,39.45
2022-08-08T01:46:47.396Z,39.63
2022-08-08T01:49:37.546Z,39.00
2022-08-08T01:53:28.931Z,38.89
2022-08-08T01:55:45.986Z,38.62
2022-08-08T01:58:47.111Z,38.38
2022-08-08T02:01:59.937Z,38.70
2022-08-08T02:04:54.051Z,39.03
2022-08-08T02:07:41.813Z,39.09
2022-08-08T02:10:46.166Z,38.99
2022-08-08T02:13:52.720Z,38.88
2022-08-08T02:16:44.881Z,39.03
2022-08-08T02:19:41.771Z,38.87
2022-08-08T02:22:33.526Z,38.92
2022-08-08T02:25:21.500Z,39.58
2022-08-08T02:28:10.558Z,39.57
2022-08-08T02:32:00.799Z,39.93
2022-08-08T02:35:18.316Z,39.48
2022-08-08T02:38:25.295Z,40.41
2022-08-08T02:41:57.942Z,40.42
2022-08-08T02:44:37.409Z,40.51
2022-08-08T03:19:21.621Z,44.13
2022-08-08T03:21:58.165Z,44.46
2022-08-08T03:24:34.621Z,46.89
2022-08-08T03:27:27.502Z,47.58
2022-08-08T03:30:07.906Z,48.36
2022-08-08T03:32:59.943Z,50.45
2022-08-08T03:35:40.351Z,50.77
2022-08-08T03:38:54.462Z,51.20
2022-08-08T03:42:12.167Z,53.39
2022-08-08T03:44:35.585Z,53.65
2022-08-08T03:47:07.165Z,52.90
2022-08-08T03:49:58.607Z,53.37
2022-08-08T03:52:35.211Z,53.13
2022-08-08T04:00:53.941Z,56.03
2022-08-08T04:03:25.790Z,55.26
2022-08-08T04:08:32.930Z,52.57
2022-08-08T04:11:11.506Z,52.92
2022-08-08T04:14:35.723Z,52.01
2022-08-08T04:17:57.745Z,51.25
2022-08-08T04:20:28.756Z,50.73
2022-08-08T04:22:58.161Z,50.65
2022-08-08T04:25:29.773Z,50.45
2022-08-08T04:28:10.614Z,50.12
2022-08-08T04:30:44.335Z,49.91
2022-08-08T04:33:27.092Z,50.27
2022-08-08T04:38:57.229Z,49.36
2022-08-08T04:44:58.496Z,49.98
2022-08-08T05:08:21.971Z,50.13
2022-08-08T05:13:30.709Z,48.87
2022-08-08T05:16:55.525Z,48.69
2022-08-08T05:18:44.848Z,48.24
2022-08-08T05:21:14.396Z,45.32
2022-08-08T05:24:41.389Z,44.51
2022-08-08T05:27:44.857Z,44.55
2022-08-08T05:30:11.983Z,48.53
2022-08-08T05:32:39.922Z,49.77
2022-08-08T05:35:07.697Z,49.39
2022-08-08T05:37:53.904Z,48.06
2022-08-08T05:40:28.065Z,47.75
2022-08-08T05:43:17.185Z,47.55
2022-08-08T05:46:01.930Z,46.54
2022-08-08T05:48:33.020Z,42.93
2022-08-08T05:51:14.487Z,42.16
2022-08-08T05:54:24.582Z,41.75
2022-08-08T05:56:50.949Z,41.69
2022-08-08T06:07:23.863Z,40.63
2022-08-08T06:12:50.936Z,40.54
2022-08-08T06:20:28.124Z,39.97
2022-08-08T06:22:57.836Z,39.54
2022-08-08T06:26:34.879Z,39.13
2022-08-08T06:28:29.025Z,38.34
2022-08-08T06:31:00.309Z,39.40
2022-08-08T06:37:36.819Z,37.56
2022-08-08T06:40:14.238Z,37.55
2022-08-08T06:43:19.491Z,37.57
2022-08-08T06:45:48.227Z,37.90
2022-08-08T06:48:16.007Z,38.09
2022-08-08T06:58:50.998Z,39.80
2022-08-08T07:02:16.256Z,40.08
2022-08-08T07:04:45.426Z,41.53
2022-08-08T07:11:30.226Z,46.10
2022-08-08T07:23:29.524Z,52.22
2022-08-08T07:49:04.786Z,50.27
2022-08-08T07:51:45.083Z,49.00
2022-08-08T07:54:33.605Z,47.47
2022-08-08T07:57:22.006Z,46.44
2022-08-08T08:00:15.941Z,45.99
2022-08-08T08:03:02.042Z,45.39
2022-08-08T08:05:33.530Z,45.38
2022-08-08T08:38:49.765Z,40.93
2022-08-08T08:41:19.941Z,42.92
2022-08-08T08:43:50.232Z,43.27
2022-08-08T08:46:20.307Z,44.01
2022-08-08T08:48:54.634Z,42.59
2022-08-08T09:02:31.571Z,41.06
2022-08-08T09:05:03.665Z,41.77
2022-08-08T09:07:39.572Z,43.15
2022-08-08T09:10:31.864Z,43.71
2022-08-08T09:13:01.886Z,43.80
2022-08-08T09:15:40.768Z,44.90
2022-08-08T09:18:09.621Z,46.04
2022-08-08T09:21:58.841Z,45.24
2022-08-08T09:23:37.984Z,45.51
2022-08-08T09:27:05.450Z,45.79
2022-08-08T09:33:54.855Z,45.91
2022-08-08T09:35:53.063Z,46.67
2022-08-08T09:38:59.830Z,46.38
2022-08-08T09:42:14.305Z,46.06
2022-08-08T09:44:40.677Z,45.44
2022-08-08T09:47:26.028Z,45.22
2022-08-08T09:50:04.762Z,45.45
2022-08-08T09:52:55.470Z,45.09
2022-08-08T09:58:36.105Z,45.42
2022-08-08T10:04:47.408Z,44.85
2022-08-08T10:16:00.633Z,47.52
2022-08-08T10:21:25.145Z,51.28
2022-08-08T10:23:59.880Z,52.07
2022-08-08T10:26:52.429Z,53.45
2022-08-08T10:29:44.049Z,52.73
2022-08-08T10:32:34.034Z,53.23
2022-08-08T10:51:31.113Z,54.50
2022-08-08T10:54:21.000Z,54.74
2022-08-08T10:57:08.896Z,53.24
2022-08-08T10:59:39.850Z,52.76
2022-08-08T11:02:08.233Z,52.93
2022-08-08T11:04:53.533Z,52.88
2022-08-08T11:08:18.623Z,54.22
2022-08-08T11:13:52.143Z,54.38
2022-08-08T11:16:32.355Z,52.94
2022-08-08T11:21:41.089Z,50.68
2022-08-08T11:24:11.242Z,46.68
2022-08-08T11:26:53.817Z,45.91
2022-08-08T11:29:51.147Z,45.41
2022-08-08T11:32:29.143Z,44.52
2022-08-08T11:35:24.401Z,43.93
2022-08-08T11:51:30.327Z,41.28
2022-08-08T11:54:01.459Z,40.19
2022-08-08T11:56:34.587Z,40.77
2022-08-08T11:59:09.695Z,45.97
2022-08-08T12:02:09.733Z,43.66
2022-08-08T12:04:42.271Z,40.86
2022-08-08T12:07:17.818Z,41.36
2022-08-08T12:09:59.453Z,41.40
2022-08-08T12:23:51.637Z,45.62
2022-08-08T12:26:36.622Z,45.58
2022-08-08T12:29:21.314Z,45.73
2022-08-08T12:32:02.854Z,46.37
2022-08-08T12:34:37.070Z,46.11
2022-08-08T12:37:41.065Z,45.63
2022-08-08T12:40:24.533Z,46.71
2022-08-08T13:06:23.074Z,46.46
2022-08-08T13:08:56.123Z,45.99
2022-08-08T13:12:26.791Z,46.17
2022-08-08T13:22:46.074Z,47.78
2022-08-08T13:25:22.355Z,47.33
2022-08-08T13:31:21.325Z,47.74
2022-08-08T13:33:49.853Z,47.14
2022-08-08T13:36:18.071Z,46.68
2022-08-08T13:38:52.582Z,46.25
2022-08-08T13:41:19.525Z,45.83
2022-08-08T13:43:50.649Z,45.13
2022-08-08T13:46:32.902Z,44.81
2022-08-08T13:50:33.674Z,44.31
2022-08-08T13:51:56.322Z,43.58
2022-08-08T14:55:41.412Z,42.18
2022-08-08T14:58:16.072Z,42.11
2022-08-08T15:00:47.900Z,42.59
2022-08-08T15:03:17.242Z,42.53
2022-08-08T15:05:53.496Z,43.01
2022-08-08T15:08:34.653Z,43.01
2022-08-08T15:12:15.585Z,43.84
2022-08-08T15:16:03.306Z,43.57
2022-08-08T15:18:14.529Z,42.77
2022-08-08T15:20:46.491Z,43.99
2022-08-08T15:23:16.422Z,43.38
2022-08-08T15:25:43.259Z,43.90
2022-08-08T15:28:33.740Z,43.61
2022-08-08T15:31:25.918Z,43.68
2022-08-08T15:39:15.944Z,43.29
2022-08-08T15:41:44.005Z,42.88
2022-08-08T15:44:34.639Z,43.09
2022-08-08T15:47:31.411Z,42.60
2022-08-08T15:50:20.900Z,43.32
2022-08-08T16:31:32.630Z,46.46
2022-08-08T16:33:59.625Z,47.38
2022-08-08T16:36:33.624Z,47.28
2022-08-08T16:39:09.640Z,47.70
2022-08-08T16:41:51.341Z,46.91
2022-08-08T16:44:28.143Z,46.79
2022-08-08T16:47:21.650Z,46.81
2022-08-08T17:00:26.492Z,46.60
2022-08-08T17:02:54.051Z,46.35
2022-08-08T17:05:20.673Z,46.32
2022-08-08T17:07:51.226Z,46.33
2022-08-08T17:10:19.504Z,46.44
2022-08-08T17:12:58.163Z,46.36
2022-08-08T17:15:24.766Z,46.14
2022-08-08T17:18:04.120Z,46.59
2022-08-08T17:20:38.206Z,46.63
2022-08-08T17:23:18.177Z,46.20
2022-08-08T17:25:54.686Z,45.92
2022-08-08T17:32:21.239Z,45.88
2022-08-08T17:35:54.348Z,45.99
2022-08-08T17:37:51.796Z,46.36
2022-08-08T17:40:20.104Z,46.52
2022-08-08T17:42:50.626Z,45.80
2022-08-08T17:45:23.678Z,46.48
2022-08-08T17:48:11.350Z,46.47
2022-08-08T17:50:41.746Z,47.25
2022-08-08T17:53:08.383Z,47.93
2022-08-08T17:56:05.690Z,48.85
2022-08-08T17:58:23.167Z,48.45
2022-08-08T18:00:57.125Z,48.97
2022-08-08T18:04:20.984Z,49.61
2022-08-08T18:08:03.500Z,50.42
2022-08-08T18:10:10.560Z,50.39
2022-08-08T18:12:37.418Z,51.34
2022-08-08T18:15:04.256Z,51.09
2022-08-08T18:18:04.903Z,50.87
2022-08-08T18:20:43.933Z,51.64
2022-08-08T18:23:24.704Z,50.69
2022-08-08T18:25:51.325Z,50.05
2022-08-08T18:28:23.329Z,49.87
2022-08-08T18:30:50.947Z,50.06
2022-08-08T18:33:19.970Z,50.16
2022-08-08T18:36:04.847Z,49.85
2022-08-08T18:42:04.317Z,49.79
2022-08-08T18:44:34.802Z,50.42
2022-08-08T18:47:03.214Z,49.99
2022-08-08T18:49:41.082Z,49.93
2022-08-08T18:52:22.727Z,51.28
2022-08-08T18:55:00.809Z,49.98
2022-08-08T18:57:42.117Z,49.94
2022-08-08T19:00:16.474Z,49.70
2022-08-08T19:02:48.532Z,50.04
2022-08-08T19:05:31.834Z,50.03
2022-08-08T19:08:24.358Z,49.72
2022-08-08T19:10:56.347Z,49.52
2022-08-08T19:13:24.437Z,49.03
2022-08-08T19:15:52.093Z,48.80
2022-08-08T19:18:33.616Z,49.21
2022-08-08T19:21:29.466Z,49.08
2022-08-08T19:23:57.038Z,48.34
2022-08-08T19:26:30.500Z,48.02
2022-08-08T19:28:58.462Z,48.07
2022-08-08T19:31:31.328Z,48.04
2022-08-08T19:34:30.333Z,47.72
2022-08-08T19:36:52.086Z,47.91
2022-08-08T19:39:19.385Z,47.50
2022-08-08T19:41:46.373Z,47.47
2022-08-08T19:44:26.798Z,47.99
2022-08-08T19:47:01.669Z,47.96
2022-08-08T19:49:36.478Z,48.18
2022-08-08T19:52:05.641Z,48.25
2022-08-08T19:54:32.420Z,48.73
2022-08-08T19:56:59.014Z,50.01
2022-08-08T19:59:31.098Z,50.22
2022-08-08T20:02:04.601Z,49.47
2022-08-08T20:04:35.541Z,49.61
2022-08-08T20:08:27.097Z,50.48
2022-08-08T20:09:55.855Z,50.52
2022-08-08T20:12:32.065Z,50.40
2022-08-08T20:15:14.309Z,51.08
2022-08-08T20:17:43.665Z,50.55
2022-08-08T20:20:16.018Z,51.53
2022-08-08T20:22:46.607Z,51.62
2022-08-08T20:25:20.257Z,51.79
2022-08-08T20:27:49.241Z,51.03
2022-08-08T20:30:52.614Z,50.63
2022-08-08T20:33:08.182Z,50.13
2022-08-08T20:35:59.083Z,49.68
2022-08-08T20:38:32.641Z,49.88
2022-08-08T20:41:12.254Z,49.24
2022-08-08T20:43:48.168Z,48.71
2022-08-08T20:46:15.936Z,48.66
2022-08-08T20:48:44.178Z,48.43
2022-08-08T20:51:10.920Z,48.83
2022-08-08T20:53:59.755Z,48.25
2022-08-08T20:56:35.723Z,48.01
2022-08-08T20:59:12.305Z,47.70
2022-08-08T21:02:06.602Z,47.63
2022-08-08T21:04:27.833Z,47.65
2022-08-08T21:06:55.934Z,47.67
2022-08-08T21:09:22.945Z,47.61
2022-08-08T21:11:52.114Z,47.57
2022-08-08T21:14:30.299Z,47.29
2022-08-08T21:17:01.711Z,46.91
2022-08-08T21:19:44.146Z,46.85
2022-08-08T21:22:11.641Z,47.13
2022-08-08T21:24:39.704Z,48.33
2022-08-08T21:27:15.363Z,49.66
2022-08-08T21:30:03.023Z,50.50
2022-08-08T21:32:35.705Z,50.88
2022-08-08T21:36:16.949Z,51.30
2022-08-08T21:37:55.542Z,52.16
2022-08-08T21:40:31.182Z,51.46
2022-08-08T21:42:58.581Z,51.78
2022-08-08T21:47:59.621Z,52.02
2022-08-08T21:48:28.905Z,52.11
2022-08-08T21:51:04.264Z,52.11
2022-08-08T21:54:22.799Z,52.06
2022-08-08T21:56:33.834Z,52.25
2022-08-08T21:59:05.823Z,52.14
2022-08-08T22:01:39.369Z,52.26
2022-08-08T22:04:10.319Z,52.52
2022-08-08T22:06:39.573Z,52.81
2022-08-08T22:09:09.014Z,53.77
2022-08-08T22:11:59.143Z,54.54
2022-08-08T22:14:26.447Z,54.29
2022-08-08T22:16:54.192Z,53.79
2022-08-08T22:19:24.027Z,53.11
2022-08-08T22:21:52.881Z,52.83
2022-08-08T22:24:23.942Z,52.77
2022-08-08T22:27:01.277Z,52.35
2022-08-08T22:29:59.151Z,53.00
2022-08-08T22:32:15.514Z,52.31
2022-08-08T22:34:44.633Z,51.93
2022-08-08T22:37:49.154Z,52.35
2022-08-08T22:40:04.670Z,51.90
2022-08-08T22:42:34.857Z,51.44
2022-08-08T22:45:05.423Z,51.46
2022-08-08T22:47:41.152Z,51.52
2022-08-08T22:50:25.811Z,51.38
2022-08-08T22:54:31.665Z,51.62
2022-08-08T22:56:01.193Z,54.36
2022-08-08T22:58:34.681Z,59.20
2022-08-08T23:02:00.570Z,63.81
2022-08-08T23:03:55.447Z,64.55
2022-08-08T23:06:26.790Z,66.38
2022-08-08T23:09:00.249Z,64.80
2022-08-08T23:12:28.444Z,66.94
2022-08-08T23:14:19.404Z,67.40
2022-08-08T23:16:57.975Z,65.62
2022-08-08T23:19:31.044Z,65.61
2022-08-08T23:22:05.065Z,65.95
2022-08-08T23:24:36.584Z,65.74
2022-08-08T23:27:09.689Z,65.85
2022-08-08T23:29:38.345Z,65.25
2022-08-08T23:32:06.495Z,65.22
2022-08-08T23:34:37.565Z,66.40
2022-08-08T23:37:04.958Z,65.62
2022-08-08T23:39:41.946Z,66.00
2022-08-08T23:42:16.730Z,65.67
2022-08-08T23:44:46.500Z,65.02
2022-08-08T23:49:02.368Z,65.11
2022-08-08T23:50:29.969Z,65.85
2022-08-08T23:52:57.038Z,68.76
2022-08-08T23:55:26.278Z,66.54
2022-08-08T23:57:58.622Z,66.78
